createdAt,value
2019-01-08T00:00:37.743Z,8.77
2019-01-08T00:01:37.742Z,8.77
2019-01-08T00:02:37.764Z,8.63
2019-01-08T00:03:37.740Z,8.57
2019-01-08T00:04:37.784Z,8.75
2019-01-08T00:05:37.767Z,8.75
2019-01-08T00:06:37.785Z,8.79
2019-01-08T00:07:37.776Z,8.87
2019-01-08T00:08:37.769Z,8.81
2019-01-08T00:09:37.843Z,8.87
2019-01-08T00:10:37.780Z,8.79
2019-01-08T00:11:37.778Z,8.89
2019-01-08T00:12:37.790Z,8.84
2019-01-08T00:13:37.808Z,8.84
2019-01-08T00:14:37.831Z,8.90
2019-01-08T00:15:37.851Z,8.84
2019-01-08T00:16:37.803Z,8.89
2019-01-08T00:17:37.801Z,8.84
2019-01-08T00:18:37.818Z,8.87
2019-01-08T00:19:37.868Z,8.81
2019-01-08T00:20:37.839Z,8.66
2019-01-08T00:21:37.816Z,8.79
2019-01-08T00:22:37.827Z,8.81
2019-01-08T00:23:37.842Z,8.81
2019-01-08T00:24:37.827Z,8.93
2019-01-08T00:25:37.892Z,8.93
2019-01-08T00:26:37.845Z,8.84
2019-01-08T00:27:37.863Z,8.79
2019-01-08T00:28:43.141Z,8.81
2019-01-08T00:29:37.926Z,8.87
2019-01-08T00:30:37.873Z,8.97
2019-01-08T00:31:37.922Z,8.89
2019-01-08T00:32:37.885Z,8.89
2019-01-08T00:33:37.897Z,8.96
2019-01-08T00:34:37.877Z,8.95
2019-01-08T00:35:37.934Z,8.89
2019-01-08T00:36:37.891Z,8.95
2019-01-08T00:37:37.891Z,8.87
2019-01-08T00:38:37.885Z,8.90
2019-01-08T00:39:37.914Z,8.90
2019-01-08T00:40:37.913Z,8.84
2019-01-08T00:41:37.948Z,8.87
2019-01-08T00:42:37.952Z,8.86
2019-01-08T00:43:38.001Z,8.93
2019-01-08T00:44:37.915Z,8.86
2019-01-08T00:45:37.975Z,8.84
2019-01-08T00:46:37.923Z,8.92
2019-01-08T00:47:37.988Z,8.96
2019-01-08T00:48:37.937Z,8.96
2019-01-08T00:49:37.951Z,8.87
2019-01-08T00:50:37.986Z,8.95
2019-01-08T00:51:37.946Z,8.93
2019-01-08T00:52:37.985Z,8.87
2019-01-08T00:53:38.009Z,8.97
2019-01-08T00:54:37.982Z,8.97
2019-01-08T00:55:37.980Z,8.89
2019-01-08T00:56:37.991Z,8.92
2019-01-08T00:57:37.982Z,8.93
2019-01-08T00:58:38.013Z,8.89
2019-01-08T00:59:37.998Z,9.00
2019-01-08T01:00:38.000Z,9.03
2019-01-08T01:01:37.996Z,9.05
2019-01-08T01:02:38.007Z,9.02
2019-01-08T01:03:38.051Z,8.90
2019-01-08T01:04:38.016Z,8.95
2019-01-08T01:05:38.011Z,8.86
2019-01-08T01:06:38.024Z,8.90
2019-01-08T01:07:38.030Z,8.90
2019-01-08T01:08:38.024Z,8.99
2019-01-08T01:09:38.066Z,9.00
2019-01-08T01:10:38.034Z,8.97
2019-01-08T01:11:38.042Z,9.09
2019-01-08T01:12:38.040Z,9.09
2019-01-08T01:13:38.071Z,9.13
2019-01-08T01:14:38.087Z,9.09
2019-01-08T01:15:38.056Z,9.09
2019-01-08T01:16:38.069Z,9.09
2019-01-08T01:17:38.085Z,9.09
2019-01-08T01:18:38.078Z,9.12
2019-01-08T01:19:38.121Z,9.11
2019-01-08T01:20:38.097Z,9.19
2019-01-08T01:21:38.090Z,9.13
2019-01-08T01:22:38.078Z,9.12
2019-01-08T01:23:38.093Z,9.18
2019-01-08T01:24:38.115Z,9.03
2019-01-08T01:25:38.118Z,9.05
2019-01-08T01:26:38.092Z,9.03
2019-01-08T01:27:38.113Z,9.16
2019-01-08T01:28:38.102Z,9.03
2019-01-08T01:29:38.114Z,9.03
2019-01-08T01:30:38.167Z,9.12
2019-01-08T01:31:38.157Z,9.13
2019-01-08T01:32:38.138Z,9.08
2019-01-08T01:33:38.172Z,9.11
2019-01-08T01:34:38.178Z,9.11
2019-01-08T01:35:38.314Z,9.15
2019-01-08T01:36:38.162Z,9.13
2019-01-08T01:37:38.195Z,9.18
2019-01-08T01:38:38.180Z,9.26
2019-01-08T01:39:38.155Z,9.21
2019-01-08T01:40:38.154Z,9.21
2019-01-08T01:41:38.226Z,9.15
2019-01-08T01:42:38.186Z,9.22
2019-01-08T01:43:38.175Z,9.27
2019-01-08T01:44:38.179Z,9.33
2019-01-08T01:45:38.215Z,9.33
2019-01-08T01:46:38.229Z,9.33
2019-01-08T01:47:38.204Z,9.27
2019-01-08T01:48:38.193Z,9.29
2019-01-08T01:49:38.202Z,9.30
2019-01-08T01:50:38.199Z,9.27
2019-01-08T01:51:38.275Z,9.29
2019-01-08T01:52:38.242Z,9.33
2019-01-08T01:53:38.250Z,9.31
2019-01-08T01:54:38.215Z,9.21
2019-01-08T01:55:38.245Z,9.29
2019-01-08T01:56:38.227Z,9.22
2019-01-08T01:57:38.262Z,9.21
2019-01-08T01:58:38.235Z,9.13
2019-01-08T01:59:38.249Z,9.24
2019-01-08T02:00:38.252Z,9.15
2019-01-08T02:01:38.269Z,9.18
2019-01-08T02:02:38.296Z,9.08
2019-01-08T02:03:38.265Z,9.12
2019-01-08T02:04:38.268Z,9.09
2019-01-08T02:05:38.276Z,9.11
2019-01-08T02:06:38.270Z,9.13
2019-01-08T02:07:38.336Z,9.09
2019-01-08T02:08:38.330Z,9.12
2019-01-08T02:09:38.295Z,9.00
2019-01-08T02:10:38.305Z,9.09
2019-01-08T02:11:38.302Z,9.09
2019-01-08T02:12:38.301Z,9.12
2019-01-08T02:13:38.325Z,9.18
2019-01-08T02:14:38.343Z,9.15
2019-01-08T02:15:38.309Z,9.15
2019-01-08T02:16:38.372Z,9.03
2019-01-08T02:17:38.325Z,9.00
2019-01-08T02:18:38.337Z,9.00
2019-01-08T02:19:38.373Z,8.89
2019-01-08T02:20:38.385Z,8.97
2019-01-08T02:21:38.356Z,8.90
2019-01-08T02:22:38.354Z,9.03
2019-01-08T02:23:38.354Z,8.95
2019-01-08T02:24:38.419Z,8.89
2019-01-08T02:25:38.380Z,8.90
2019-01-08T02:26:38.400Z,8.92
2019-01-08T02:27:38.360Z,8.90
2019-01-08T02:28:38.379Z,8.93
2019-01-08T02:29:38.396Z,9.00
2019-01-08T02:30:38.402Z,8.97
2019-01-08T02:31:38.377Z,9.00
2019-01-08T02:32:38.431Z,8.99
2019-01-08T02:33:38.407Z,8.97
2019-01-08T02:34:38.442Z,9.09
2019-01-08T02:35:38.406Z,9.13
2019-01-08T02:36:38.406Z,9.05
2019-01-08T02:37:38.420Z,9.00
2019-01-08T02:38:38.484Z,8.93
2019-01-08T02:39:38.419Z,9.00
2019-01-08T02:40:38.424Z,8.99
2019-01-08T02:41:38.486Z,8.99
2019-01-08T02:42:38.499Z,9.00
2019-01-08T02:43:38.444Z,9.05
2019-01-08T02:44:38.585Z,9.05
2019-01-08T02:45:38.471Z,9.11
2019-01-08T02:46:38.553Z,9.08
2019-01-08T02:47:38.495Z,9.11
2019-01-08T02:48:38.469Z,9.00
2019-01-08T02:49:38.454Z,9.02
2019-01-08T02:50:38.475Z,8.97
2019-01-08T02:51:38.501Z,9.02
2019-01-08T02:52:38.521Z,9.02
2019-01-08T02:53:38.481Z,9.11
2019-01-08T02:54:38.614Z,9.13
2019-01-08T02:55:38.488Z,9.11
2019-01-08T02:56:38.496Z,8.97
2019-01-08T02:57:38.497Z,9.09
2019-01-08T02:58:38.574Z,9.12
2019-01-08T02:59:38.537Z,9.18
2019-01-08T03:00:38.514Z,9.19
2019-01-08T03:01:38.523Z,9.09
2019-01-08T03:02:38.521Z,9.24
2019-01-08T03:03:38.530Z,9.09
2019-01-08T03:04:38.579Z,9.11
2019-01-08T03:05:38.520Z,9.16
2019-01-08T03:06:38.584Z,9.15
2019-01-08T03:07:38.534Z,9.13
2019-01-08T03:08:38.587Z,9.26
2019-01-08T03:09:38.566Z,9.12
2019-01-08T03:10:38.560Z,9.18
2019-01-08T03:11:38.566Z,9.22
2019-01-08T03:12:38.563Z,9.09
2019-01-08T03:13:38.580Z,9.16
2019-01-08T03:14:38.633Z,9.08
2019-01-08T03:15:38.636Z,9.13
2019-01-08T03:16:38.576Z,9.18
2019-01-08T03:17:38.588Z,9.13
2019-01-08T03:18:38.590Z,9.09
2019-01-08T03:19:38.637Z,8.99
2019-01-08T03:20:38.656Z,9.12
2019-01-08T03:21:38.607Z,9.12
2019-01-08T03:22:38.603Z,9.15
2019-01-08T03:23:38.614Z,9.11
2019-01-08T03:24:38.774Z,9.03
2019-01-08T03:25:38.615Z,9.12
2019-01-08T03:26:38.619Z,9.12
2019-01-08T03:27:38.631Z,9.19
2019-01-08T03:28:38.644Z,9.21
2019-01-08T03:29:38.642Z,9.19
2019-01-08T03:30:38.671Z,9.16
2019-01-08T03:31:38.638Z,9.16
2019-01-08T03:32:38.654Z,9.16
2019-01-08T03:33:38.655Z,9.03
2019-01-08T03:34:38.678Z,9.18
2019-01-08T03:35:38.692Z,9.22
2019-01-08T03:36:38.676Z,9.22
2019-01-08T03:37:38.667Z,9.22
2019-01-08T03:38:38.716Z,9.26
2019-01-08T03:39:38.683Z,9.18
2019-01-08T03:40:38.725Z,9.27
2019-01-08T03:41:38.703Z,9.15
2019-01-08T03:42:38.683Z,9.18
2019-01-08T03:43:38.692Z,9.11
2019-01-08T03:44:38.693Z,9.13
2019-01-08T03:45:38.772Z,9.09
2019-01-08T03:46:38.741Z,9.16
2019-01-08T03:47:38.717Z,9.22
2019-01-08T03:48:38.729Z,9.19
2019-01-08T03:49:38.730Z,9.18
2019-01-08T03:50:38.729Z,9.12
2019-01-08T03:51:38.755Z,9.21
2019-01-08T03:52:38.748Z,9.22
2019-01-08T03:53:38.744Z,9.21
2019-01-08T03:54:38.743Z,9.26
2019-01-08T03:55:38.759Z,9.24
2019-01-08T03:56:38.770Z,9.26
2019-01-08T03:57:38.763Z,9.31
2019-01-08T03:58:38.771Z,9.30
2019-01-08T03:59:42.074Z,9.13
2019-01-08T04:00:38.788Z,9.03
2019-01-08T04:01:38.790Z,9.13
2019-01-08T04:02:38.782Z,8.93
2019-01-08T04:03:38.790Z,8.90
2019-01-08T04:04:38.853Z,9.05
2019-01-08T04:05:38.798Z,8.96
2019-01-08T04:06:38.810Z,8.93
2019-01-08T04:07:38.806Z,8.90
2019-01-08T04:08:38.822Z,8.99
2019-01-08T04:09:38.821Z,8.99
2019-01-08T04:10:38.822Z,8.84
2019-01-08T04:11:38.814Z,8.79
2019-01-08T04:12:38.832Z,8.81
2019-01-08T04:13:38.837Z,8.81
2019-01-08T04:14:38.848Z,8.81
2019-01-08T04:15:38.858Z,8.79
2019-01-08T04:16:38.836Z,8.74
2019-01-08T04:17:38.848Z,8.66
2019-01-08T04:18:38.855Z,8.66
2019-01-08T04:19:38.852Z,8.68
2019-01-08T04:20:38.921Z,8.64
2019-01-08T04:21:38.854Z,8.64
2019-01-08T04:22:38.865Z,8.57
2019-01-08T04:23:38.866Z,8.53
2019-01-08T04:24:38.914Z,8.61
2019-01-08T04:25:38.872Z,8.59
2019-01-08T04:26:38.900Z,8.63
2019-01-08T04:27:38.900Z,8.61
2019-01-08T04:28:38.890Z,8.57
2019-01-08T04:29:38.895Z,8.60
2019-01-08T04:30:38.890Z,8.61
2019-01-08T04:31:38.948Z,8.56
2019-01-08T04:32:38.914Z,8.57
2019-01-08T04:33:38.920Z,8.61
2019-01-08T04:34:38.950Z,8.53
2019-01-08T04:35:38.914Z,8.60
2019-01-08T04:36:38.918Z,8.60
2019-01-08T04:37:38.951Z,8.57
2019-01-08T04:38:38.960Z,8.57
2019-01-08T04:39:38.944Z,8.56
2019-01-08T04:40:38.936Z,8.60
2019-01-08T04:41:39.009Z,8.64
2019-01-08T04:42:38.948Z,8.66
2019-01-08T04:43:38.959Z,8.61
2019-01-08T04:44:38.960Z,8.60
2019-01-08T04:45:38.987Z,8.59
2019-01-08T04:46:38.958Z,8.59
2019-01-08T04:47:38.982Z,8.53
2019-01-08T04:48:39.005Z,8.44
2019-01-08T04:49:38.979Z,8.45
2019-01-08T04:50:38.984Z,8.44
2019-01-08T04:51:38.992Z,8.32
2019-01-08T04:52:39.051Z,8.49
2019-01-08T04:53:38.985Z,8.46
2019-01-08T04:54:38.998Z,8.46
2019-01-08T04:55:39.008Z,8.39
2019-01-08T04:56:39.048Z,8.32
2019-01-08T04:57:39.058Z,8.36
2019-01-08T04:58:39.016Z,8.31
2019-01-08T04:59:39.032Z,8.23
2019-01-08T05:00:39.023Z,8.23
2019-01-08T05:01:39.039Z,8.26
2019-01-08T05:02:39.019Z,8.24
2019-01-08T05:03:39.056Z,8.21
2019-01-08T05:04:39.045Z,8.23
2019-01-08T05:05:39.033Z,8.20
2019-01-08T05:06:39.077Z,8.14
2019-01-08T05:07:39.038Z,8.09
2019-01-08T05:08:39.096Z,8.05
2019-01-08T05:09:39.051Z,8.01
2019-01-08T05:10:39.065Z,7.99
2019-01-08T05:11:39.063Z,8.05
2019-01-08T05:12:39.114Z,8.06
2019-01-08T05:13:39.087Z,8.01
2019-01-08T05:14:39.077Z,7.99
2019-01-08T05:15:39.095Z,7.85
2019-01-08T05:16:39.102Z,7.87
2019-01-08T05:17:39.154Z,7.95
2019-01-08T05:18:39.097Z,7.96
2019-01-08T05:19:39.094Z,7.91
2019-01-08T05:20:39.110Z,7.95
2019-01-08T05:21:39.094Z,7.95
2019-01-08T05:22:39.113Z,7.98
2019-01-08T05:23:39.131Z,7.95
2019-01-08T05:24:39.171Z,7.91
2019-01-08T05:25:39.117Z,7.90
2019-01-08T05:26:39.110Z,7.85
2019-01-08T05:27:39.133Z,7.84
2019-01-08T05:28:39.152Z,7.84
2019-01-08T05:29:39.137Z,7.88
2019-01-08T05:30:39.130Z,7.88
2019-01-08T05:31:39.177Z,7.96
2019-01-08T05:32:39.143Z,7.90
2019-01-08T05:33:39.172Z,7.99
2019-01-08T05:34:39.154Z,7.98
2019-01-08T05:35:39.158Z,7.88
2019-01-08T05:36:39.160Z,7.99
2019-01-08T05:37:39.169Z,7.91
2019-01-08T05:38:39.218Z,7.95
2019-01-08T05:39:39.166Z,7.95
2019-01-08T05:40:39.183Z,7.98
2019-01-08T05:41:39.200Z,7.96
2019-01-08T05:42:39.198Z,7.90
2019-01-08T05:43:39.176Z,7.91
2019-01-08T05:44:39.246Z,7.93
2019-01-08T05:45:39.185Z,7.99
2019-01-08T05:46:39.196Z,8.01
2019-01-08T05:47:39.199Z,8.06
2019-01-08T05:48:39.226Z,8.16
2019-01-08T05:49:39.227Z,8.11
2019-01-08T05:50:39.213Z,8.08
2019-01-08T05:51:39.209Z,8.09
2019-01-08T05:52:39.232Z,8.01
2019-01-08T05:53:39.242Z,8.09
2019-01-08T05:54:39.270Z,8.09
2019-01-08T05:55:39.241Z,8.06
2019-01-08T05:56:39.302Z,8.08
2019-01-08T05:57:39.245Z,8.20
2019-01-08T05:58:39.247Z,8.21
2019-01-08T05:59:39.250Z,8.18
2019-01-08T06:00:39.342Z,8.28
2019-01-08T06:01:39.270Z,8.21
2019-01-08T06:02:39.275Z,8.39
2019-01-08T06:03:39.259Z,8.24
2019-01-08T06:04:39.323Z,8.26
2019-01-08T06:05:39.298Z,8.44
2019-01-08T06:06:39.302Z,8.39
2019-01-08T06:07:39.277Z,8.44
2019-01-08T06:08:39.279Z,8.39
2019-01-08T06:09:39.283Z,8.41
2019-01-08T06:10:39.926Z,8.35
2019-01-08T06:11:39.321Z,8.36
2019-01-08T06:12:39.375Z,8.45
2019-01-08T06:13:39.326Z,8.34
2019-01-08T06:14:39.302Z,8.42
2019-01-08T06:15:39.342Z,8.50
2019-01-08T06:16:39.317Z,8.52
2019-01-08T06:17:39.323Z,8.54
2019-01-08T06:18:39.334Z,8.63
2019-01-08T06:19:39.352Z,8.60
2019-01-08T06:20:39.406Z,8.57
2019-01-08T06:21:39.368Z,8.50
2019-01-08T06:22:39.347Z,8.56
2019-01-08T06:23:39.338Z,8.60
2019-01-08T06:24:39.363Z,8.56
2019-01-08T06:25:39.373Z,8.59
2019-01-08T06:26:39.383Z,8.61
2019-01-08T06:27:39.381Z,8.59
2019-01-08T06:28:39.412Z,8.59
2019-01-08T06:29:39.373Z,8.56
2019-01-08T06:30:39.409Z,8.59
2019-01-08T06:31:39.428Z,8.61
2019-01-08T06:32:39.427Z,8.60
2019-01-08T06:33:39.378Z,8.60
2019-01-08T06:34:39.403Z,8.56
2019-01-08T06:35:39.391Z,8.54
2019-01-08T06:36:39.402Z,8.60
2019-01-08T06:37:39.425Z,8.52
2019-01-08T06:38:39.402Z,8.53
2019-01-08T06:39:39.425Z,8.56
2019-01-08T06:40:39.418Z,8.56
2019-01-08T06:41:39.428Z,8.60
2019-01-08T06:42:39.444Z,8.60
2019-01-08T06:43:39.434Z,8.59
2019-01-08T06:44:39.420Z,8.60
2019-01-08T06:45:39.529Z,8.59
2019-01-08T06:46:43.153Z,8.56
2019-01-08T06:47:39.442Z,8.61
2019-01-08T06:48:39.477Z,8.56
2019-01-08T06:49:39.490Z,8.63
2019-01-08T06:50:39.453Z,8.54
2019-01-08T06:51:39.466Z,8.56
2019-01-08T06:52:39.484Z,8.56
2019-01-08T06:53:39.490Z,8.59
2019-01-08T06:54:39.536Z,8.59
2019-01-08T06:55:39.476Z,8.60
2019-01-08T06:56:39.544Z,8.56
2019-01-08T06:57:39.483Z,8.59
2019-01-08T06:58:39.510Z,8.56
2019-01-08T06:59:39.519Z,8.57
2019-01-08T07:00:39.505Z,8.59
2019-01-08T07:01:39.515Z,8.57
2019-01-08T07:02:39.578Z,8.61
2019-01-08T07:03:39.529Z,8.57
2019-01-08T07:04:39.543Z,8.60
2019-01-08T07:05:39.546Z,8.60
2019-01-08T07:06:39.530Z,8.66
2019-01-08T07:07:39.533Z,8.63
2019-01-08T07:08:39.586Z,8.59
2019-01-08T07:09:39.544Z,8.64
2019-01-08T07:10:39.541Z,8.66
2019-01-08T07:11:39.553Z,8.61
2019-01-08T07:12:39.541Z,8.64
2019-01-08T07:13:39.581Z,8.69
2019-01-08T07:14:39.598Z,8.74
2019-01-08T07:15:39.557Z,8.61
2019-01-08T07:16:39.576Z,8.57
2019-01-08T07:17:39.577Z,8.59
2019-01-08T07:18:39.578Z,8.69
2019-01-08T07:19:39.609Z,8.69
2019-01-08T07:20:39.611Z,8.66
2019-01-08T07:21:39.582Z,8.61
2019-01-08T07:22:39.636Z,8.64
2019-01-08T07:23:39.626Z,8.59
2019-01-08T07:24:39.603Z,8.63
2019-01-08T07:25:42.319Z,8.68
2019-01-08T07:26:39.603Z,8.79
2019-01-08T07:27:39.632Z,8.75
2019-01-08T07:28:39.624Z,8.75
2019-01-08T07:29:39.616Z,8.79
2019-01-08T07:30:41.731Z,8.72
2019-01-08T07:31:39.698Z,8.81
2019-01-08T07:32:39.636Z,8.78
2019-01-08T07:33:39.643Z,8.71
2019-01-08T07:34:39.648Z,8.64
2019-01-08T07:35:39.718Z,8.66
2019-01-08T07:36:39.683Z,8.74
2019-01-08T07:37:39.651Z,8.74
2019-01-08T07:38:39.691Z,8.74
2019-01-08T07:39:39.673Z,8.87
2019-01-08T07:40:41.373Z,8.77
2019-01-08T07:41:39.761Z,8.78
2019-01-08T07:42:39.689Z,8.84
2019-01-08T07:43:39.692Z,8.78
2019-01-08T07:44:39.719Z,8.87
2019-01-08T07:45:39.718Z,8.81
2019-01-08T07:46:40.310Z,8.86
2019-01-08T07:47:39.711Z,8.87
2019-01-08T07:48:39.714Z,8.79
2019-01-08T07:49:39.700Z,8.86
2019-01-08T07:50:39.710Z,8.81
2019-01-08T07:51:39.746Z,8.81
2019-01-08T07:52:39.746Z,8.79
2019-01-08T07:53:39.740Z,8.79
2019-01-08T07:54:39.729Z,8.93
2019-01-08T07:55:39.739Z,8.81
2019-01-08T07:56:39.738Z,8.97
2019-01-08T07:57:39.750Z,8.92
2019-01-08T07:58:39.777Z,8.87
2019-01-08T07:59:39.798Z,8.81
2019-01-08T08:00:39.749Z,8.92
2019-01-08T08:01:39.750Z,8.86
2019-01-08T08:02:39.765Z,8.96
2019-01-08T08:03:39.926Z,8.87
2019-01-08T08:04:47.330Z,8.89
2019-01-08T08:05:39.785Z,8.89
2019-01-08T08:06:39.784Z,8.99
2019-01-08T08:07:39.800Z,8.90
2019-01-08T08:08:39.842Z,8.97
2019-01-08T08:09:39.817Z,8.99
2019-01-08T08:10:39.809Z,9.00
2019-01-08T08:11:39.877Z,9.05
2019-01-08T08:12:39.808Z,8.99
2019-01-08T08:13:39.843Z,9.03
2019-01-08T08:14:39.821Z,9.03
2019-01-08T08:15:39.874Z,8.87
2019-01-08T08:16:39.828Z,9.02
2019-01-08T08:17:39.837Z,8.89
2019-01-08T08:18:39.851Z,9.00
2019-01-08T08:19:39.829Z,9.03
2019-01-08T08:20:39.858Z,9.00
2019-01-08T08:21:39.902Z,9.00
2019-01-08T08:22:39.854Z,8.97
2019-01-08T08:23:39.872Z,9.02
2019-01-08T08:24:39.861Z,9.03
2019-01-08T08:25:39.928Z,9.02
2019-01-08T08:26:39.884Z,8.99
2019-01-08T08:27:39.938Z,9.09
2019-01-08T08:28:39.868Z,9.02
2019-01-08T08:29:39.871Z,9.00
2019-01-08T08:30:39.877Z,9.00
2019-01-08T08:31:39.885Z,9.08
2019-01-08T08:32:39.907Z,9.00
2019-01-08T08:33:40.005Z,8.99
2019-01-08T08:34:39.908Z,8.97
2019-01-08T08:35:39.906Z,8.93
2019-01-08T08:36:39.935Z,8.99
2019-01-08T08:37:39.958Z,8.92
2019-01-08T08:38:39.976Z,8.99
2019-01-08T08:39:39.919Z,8.95
2019-01-08T08:40:39.927Z,8.96
2019-01-08T08:41:39.951Z,8.90
2019-01-08T08:42:39.940Z,8.79
2019-01-08T08:43:39.961Z,8.84
2019-01-08T08:44:39.963Z,8.82
2019-01-08T08:45:39.979Z,8.84
2019-01-08T08:46:39.956Z,8.81
2019-01-08T08:47:39.979Z,8.74
2019-01-08T08:48:40.029Z,8.90
2019-01-08T08:49:39.967Z,8.81
2019-01-08T08:50:39.982Z,8.86
2019-01-08T08:51:39.985Z,8.82
2019-01-08T08:52:40.003Z,8.87
2019-01-08T08:53:39.991Z,8.89
2019-01-08T08:54:40.011Z,8.90
2019-01-08T08:55:40.272Z,8.96
2019-01-08T08:56:39.997Z,8.89
2019-01-08T08:57:40.001Z,8.90
2019-01-08T08:58:40.009Z,8.97
2019-01-08T08:59:40.053Z,9.03
2019-01-08T09:00:40.021Z,9.11
2019-01-08T09:01:40.127Z,9.12
2019-01-08T09:02:40.046Z,9.08
2019-01-08T09:03:40.046Z,9.12
2019-01-08T09:04:40.042Z,9.12
2019-01-08T09:05:40.055Z,9.11
2019-01-08T09:06:40.142Z,9.13
2019-01-08T09:07:40.070Z,9.02
2019-01-08T09:08:40.094Z,9.18
2019-01-08T09:09:40.113Z,9.21
2019-01-08T09:10:40.060Z,9.18
2019-01-08T09:11:40.057Z,9.09
2019-01-08T09:12:40.074Z,9.16
2019-01-08T09:13:40.090Z,9.12
2019-01-08T09:14:40.204Z,9.22
2019-01-08T09:15:40.823Z,9.22
2019-01-08T09:16:40.091Z,9.21
2019-01-08T09:17:40.178Z,9.12
2019-01-08T09:18:40.098Z,9.05
2019-01-08T09:19:40.109Z,9.08
2019-01-08T09:20:40.116Z,9.12
2019-01-08T09:21:40.163Z,9.12
2019-01-08T09:22:40.112Z,9.18
2019-01-08T09:23:40.125Z,9.22
2019-01-08T09:24:40.117Z,9.16
2019-01-08T09:25:40.133Z,9.16
2019-01-08T09:26:40.176Z,9.22
2019-01-08T09:27:40.191Z,9.21
2019-01-08T09:28:40.152Z,9.26
2019-01-08T09:29:40.139Z,9.27
2019-01-08T09:30:40.144Z,9.22
2019-01-08T09:31:40.153Z,9.13
2019-01-08T09:32:40.160Z,8.99
2019-01-08T09:33:40.200Z,9.15
2019-01-08T09:34:40.195Z,9.09
2019-01-08T09:35:40.179Z,9.12
2019-01-08T09:36:40.171Z,9.11
2019-01-08T09:37:40.208Z,9.16
2019-01-08T09:38:40.215Z,8.99
2019-01-08T09:39:40.184Z,8.99
2019-01-08T09:40:40.215Z,9.03
2019-01-08T09:41:40.222Z,8.97
2019-01-08T09:42:40.249Z,9.02
2019-01-08T09:43:40.199Z,9.02
2019-01-08T09:44:40.209Z,9.12
2019-01-08T09:45:40.241Z,9.00
2019-01-08T09:46:40.266Z,9.00
2019-01-08T09:47:40.220Z,8.97
2019-01-08T09:48:40.243Z,9.03
2019-01-08T09:49:40.236Z,9.19
2019-01-08T09:50:40.252Z,9.03
2019-01-08T09:51:40.336Z,9.00
2019-01-08T09:52:40.259Z,8.93
2019-01-08T09:53:40.289Z,9.00
2019-01-08T09:54:40.247Z,8.99
2019-01-08T09:55:40.249Z,9.03
2019-01-08T09:56:40.254Z,8.99
2019-01-08T09:57:40.298Z,8.92
2019-01-08T09:58:40.290Z,9.00
2019-01-08T09:59:40.418Z,8.90
2019-01-08T10:00:40.306Z,8.90
2019-01-08T10:01:40.290Z,9.02
2019-01-08T10:02:40.292Z,8.99
2019-01-08T10:03:40.299Z,9.15
2019-01-08T10:04:40.310Z,9.11
2019-01-08T10:05:40.325Z,9.08
2019-01-08T10:06:40.334Z,9.12
2019-01-08T10:07:40.318Z,9.12
2019-01-08T10:08:40.329Z,8.99
2019-01-08T10:09:40.373Z,9.12
2019-01-08T10:10:40.327Z,9.11
2019-01-08T10:11:40.362Z,9.03
2019-01-08T10:12:40.385Z,9.09
2019-01-08T10:13:40.379Z,9.12
2019-01-08T10:14:40.354Z,9.09
2019-01-08T10:15:40.380Z,9.16
2019-01-08T10:16:40.355Z,9.09
2019-01-08T10:17:40.355Z,9.03
2019-01-08T10:18:40.362Z,9.12
2019-01-08T10:19:40.362Z,9.11
2019-01-08T10:20:40.416Z,9.03
2019-01-08T10:21:40.405Z,9.15
2019-01-08T10:22:40.390Z,9.13
2019-01-08T10:23:40.394Z,9.05
2019-01-08T10:24:40.488Z,9.00
2019-01-08T10:25:40.415Z,9.12
2019-01-08T10:26:40.568Z,9.09
2019-01-08T10:27:40.432Z,9.09
2019-01-08T10:28:40.405Z,9.18
2019-01-08T10:29:40.408Z,9.13
2019-01-08T10:30:41.263Z,9.26
2019-01-08T10:31:40.509Z,9.24
2019-01-08T10:32:40.425Z,9.18
2019-01-08T10:33:40.437Z,9.18
2019-01-08T10:34:40.443Z,9.03
2019-01-08T10:35:40.463Z,9.26
2019-01-08T10:36:40.450Z,9.19
2019-01-08T10:37:40.496Z,9.15
2019-01-08T10:38:40.449Z,9.15
2019-01-08T10:39:40.458Z,9.15
2019-01-08T10:40:40.465Z,9.26
2019-01-08T10:41:40.468Z,9.15
2019-01-08T10:42:40.475Z,9.29
2019-01-08T10:43:40.610Z,9.30
2019-01-08T10:44:40.470Z,9.33
2019-01-08T10:45:40.489Z,9.33
2019-01-08T10:46:40.508Z,9.30
2019-01-08T10:47:40.531Z,9.33
2019-01-08T10:48:40.496Z,9.26
2019-01-08T10:49:40.523Z,9.33
2019-01-08T10:50:40.521Z,9.45
2019-01-08T10:51:40.506Z,9.37
2019-01-08T10:52:40.504Z,9.44
2019-01-08T10:53:40.544Z,9.49
2019-01-08T10:54:40.514Z,9.56
2019-01-08T10:55:40.546Z,9.52
2019-01-08T10:56:41.261Z,9.48
2019-01-08T10:57:40.628Z,9.51
2019-01-08T10:58:40.540Z,9.52
2019-01-08T10:59:40.601Z,9.47
2019-01-08T11:00:40.552Z,9.54
2019-01-08T11:01:41.011Z,9.51
2019-01-08T11:02:40.633Z,9.52
2019-01-08T11:03:40.606Z,9.47
2019-01-08T11:04:40.620Z,9.55
2019-01-08T11:05:40.569Z,9.59
2019-01-08T11:06:40.581Z,9.45
2019-01-08T11:07:40.618Z,9.49
2019-01-08T11:08:40.576Z,9.49
2019-01-08T11:09:40.599Z,9.62
2019-01-08T11:10:40.600Z,9.55
2019-01-08T11:11:40.629Z,9.51
2019-01-08T11:12:40.621Z,9.55
2019-01-08T11:13:40.601Z,9.49
2019-01-08T11:14:40.636Z,9.51
2019-01-08T11:15:40.619Z,9.52
2019-01-08T11:16:40.626Z,9.44
2019-01-08T11:17:40.620Z,9.54
2019-01-08T11:18:40.693Z,9.54
2019-01-08T11:19:41.403Z,9.47
2019-01-08T11:20:40.645Z,9.40
2019-01-08T11:21:40.652Z,9.40
2019-01-08T11:22:40.663Z,9.39
2019-01-08T11:23:40.671Z,9.34
2019-01-08T11:24:40.719Z,9.47
2019-01-08T11:25:40.668Z,9.42
2019-01-08T11:26:40.676Z,9.40
2019-01-08T11:27:40.676Z,9.44
2019-01-08T11:28:40.676Z,9.45
2019-01-08T11:29:40.713Z,9.36
2019-01-08T11:30:40.776Z,9.44
2019-01-08T11:31:48.625Z,9.47
2019-01-08T11:32:40.717Z,9.36
2019-01-08T11:33:40.693Z,9.40
2019-01-08T11:34:40.710Z,9.31
2019-01-08T11:35:42.278Z,9.31
2019-01-08T11:36:40.768Z,9.30
2019-01-08T11:37:40.767Z,9.39
2019-01-08T11:38:40.750Z,9.31
2019-01-08T11:39:40.773Z,9.47
2019-01-08T11:40:40.726Z,9.45
2019-01-08T11:41:40.785Z,9.47
2019-01-08T11:42:40.748Z,9.45
2019-01-08T11:43:40.757Z,9.51
2019-01-08T11:44:40.791Z,9.42
2019-01-08T11:45:40.895Z,9.49
2019-01-08T11:46:40.763Z,9.51
2019-01-08T11:47:40.764Z,9.45
2019-01-08T11:48:40.799Z,9.44
2019-01-08T11:49:40.772Z,9.49
2019-01-08T11:50:40.828Z,9.51
2019-01-08T11:51:40.800Z,9.52
2019-01-08T11:52:40.786Z,9.47
2019-01-08T11:53:40.809Z,9.52
2019-01-08T11:54:41.380Z,9.34
2019-01-08T11:55:40.816Z,9.31
2019-01-08T11:56:40.842Z,9.34
2019-01-08T11:57:40.853Z,9.31
2019-01-08T11:58:40.824Z,9.34
2019-01-08T11:59:40.824Z,9.39
2019-01-08T12:00:40.999Z,9.47
2019-01-08T12:01:40.863Z,9.42
2019-01-08T12:02:47.728Z,9.33
2019-01-08T12:03:40.837Z,9.48
2019-01-08T12:04:40.906Z,9.40
2019-01-08T12:05:40.842Z,9.54
2019-01-08T12:06:40.963Z,9.42
2019-01-08T12:07:40.866Z,9.49
2019-01-08T12:08:40.918Z,9.54
2019-01-08T12:09:40.861Z,9.51
2019-01-08T12:10:40.904Z,9.48
2019-01-08T12:11:40.928Z,9.44
2019-01-08T12:12:40.900Z,9.47
2019-01-08T12:13:40.889Z,9.45
2019-01-08T12:14:40.892Z,9.42
2019-01-08T12:15:40.899Z,9.52
2019-01-08T12:16:40.903Z,9.49
2019-01-08T12:17:40.968Z,9.62
2019-01-08T12:18:40.908Z,9.49
2019-01-08T12:19:40.903Z,9.44
2019-01-08T12:20:40.932Z,9.49
2019-01-08T12:21:40.917Z,9.45
2019-01-08T12:22:41.246Z,9.49
2019-01-08T12:23:40.935Z,9.49
2019-01-08T12:24:40.945Z,9.49
2019-01-08T12:25:40.963Z,9.51
2019-01-08T12:26:40.999Z,9.47
2019-01-08T12:27:40.974Z,9.59
2019-01-08T12:28:40.941Z,9.45
2019-01-08T12:29:40.967Z,9.47
2019-01-08T12:30:40.971Z,9.48
2019-01-08T12:31:40.996Z,9.55
2019-01-08T12:32:40.975Z,9.52
2019-01-08T12:33:41.008Z,9.58
2019-01-08T12:34:40.971Z,9.58
2019-01-08T12:35:40.970Z,9.62
2019-01-08T12:36:41.007Z,9.64
2019-01-08T12:37:42.103Z,9.56
2019-01-08T12:38:41.199Z,9.58
2019-01-08T12:39:41.085Z,9.63
2019-01-08T12:40:41.010Z,9.66
2019-01-08T12:41:41.004Z,9.58
2019-01-08T12:42:41.015Z,9.64
2019-01-08T12:43:41.093Z,9.56
2019-01-08T12:44:41.073Z,9.58
2019-01-08T12:45:41.089Z,9.66
2019-01-08T12:46:41.037Z,9.66
2019-01-08T12:47:41.069Z,9.58
2019-01-08T12:48:41.049Z,9.59
2019-01-08T12:49:41.073Z,9.63
2019-01-08T12:50:41.083Z,9.55
2019-01-08T12:51:41.053Z,9.58
2019-01-08T12:52:41.085Z,9.54
2019-01-08T12:53:41.091Z,9.59
2019-01-08T12:54:41.096Z,9.70
2019-01-08T12:55:41.084Z,9.56
2019-01-08T12:56:41.078Z,9.64
2019-01-08T12:57:41.115Z,9.59
2019-01-08T12:58:41.187Z,9.59
2019-01-08T12:59:41.105Z,9.69
2019-01-08T13:00:41.123Z,9.66
2019-01-08T13:01:41.110Z,9.54
2019-01-08T13:02:41.817Z,9.55
2019-01-08T13:03:41.130Z,9.62
2019-01-08T13:04:41.169Z,9.62
2019-01-08T13:05:41.141Z,9.63
2019-01-08T13:06:41.133Z,9.59
2019-01-08T13:07:41.135Z,9.59
2019-01-08T13:08:41.174Z,9.56
2019-01-08T13:09:41.174Z,9.58
2019-01-08T13:10:41.154Z,9.66
2019-01-08T13:11:41.173Z,9.70
2019-01-08T13:12:41.163Z,9.67
2019-01-08T13:13:41.162Z,9.67
2019-01-08T13:14:41.160Z,9.76
2019-01-08T13:15:41.208Z,9.70
2019-01-08T13:16:41.193Z,9.69
2019-01-08T13:17:41.184Z,9.72
2019-01-08T13:18:41.190Z,9.66